sensor_id;sensor_type;location;lat;lon;timestamp;P1;durP1;ratioP1;P2;durP2;ratioP2
18042;SDS011;9146;48.074;11.968;2022-08-04T00:02:17;2.77;;;2.57;;
18042;SDS011;9146;48.074;11.968;2022-08-04T00:04:52;2.13;;;1.83;;
18042;SDS011;9146;48.074;11.968;2022-08-04T00:07:25;1.80;;;1.70;;
18042;SDS011;9146;48.074;11.968;2022-08-04T00:10:00;1.90;;;1.80;;
18042;SDS011;9146;48.074;11.968;2022-08-04T00:12:29;2.60;;;2.40;;
18042;SDS011;9146;48.074;11.968;2022-08-04T00:14:59;2.43;;;2.23;;
18042;SDS011;9146;48.074;11.968;2022-08-04T00:17:28;2.93;;;2.03;;
18042;SDS011;9146;48.074;11.968;2022-08-04T00:20:00;2.50;;;2.40;;
18042;SDS011;9146;48.074;11.968;2022-08-04T00:22:29;2.07;;;1.97;;
18042;SDS011;9146;48.074;11.968;2022-08-04T00:25:02;2.20;;;2.10;;
18042;SDS011;9146;48.074;11.968;2022-08-04T00:27:30;1.90;;;1.80;;
18042;SDS011;9146;48.074;11.968;2022-08-04T00:29:58;2.87;;;2.67;;
18042;SDS011;9146;48.074;11.968;2022-08-04T00:32:25;2.07;;;1.97;;
18042;SDS011;9146;48.074;11.968;2022-08-04T00:34:52;2.00;;;1.90;;
18042;SDS011;9146;48.074;11.968;2022-08-04T00:37:22;2.10;;;2.00;;
18042;SDS011;9146;48.074;11.968;2022-08-04T00:39:50;1.97;;;1.87;;
18042;SDS011;9146;48.074;11.968;2022-08-04T00:45:11;2.30;;;2.20;;
18042;SDS011;9146;48.074;11.968;2022-08-04T00:47:59;2.10;;;2.00;;
18042;SDS011;9146;48.074;11.968;2022-08-04T00:50:33;2.00;;;1.90;;
18042;SDS011;9146;48.074;11.968;2022-08-04T00:53:12;2.70;;;2.50;;
18042;SDS011;9146;48.074;11.968;2022-08-04T00:56:02;2.80;;;2.60;;
18042;SDS011;9146;48.074;11.968;2022-08-04T00:58:52;2.10;;;2.00;;
18042;SDS011;9146;48.074;11.968;2022-08-04T01:01:35;2.50;;;2.40;;
18042;SDS011;9146;48.074;11.968;2022-08-04T01:04:11;2.30;;;2.20;;
18042;SDS011;9146;48.074;11.968;2022-08-04T01:06:44;2.23;;;2.13;;
18042;SDS011;9146;48.074;11.968;2022-08-04T01:09:25;2.67;;;2.47;;
18042;SDS011;9146;48.074;11.968;2022-08-04T01:12:07;2.50;;;2.37;;
18042;SDS011;9146;48.074;11.968;2022-08-04T01:14:58;2.27;;;2.17;;
18042;SDS011;9146;48.074;11.968;2022-08-04T01:17:36;2.80;;;2.60;;
18042;SDS011;9146;48.074;11.968;2022-08-04T01:20:12;2.27;;;2.13;;
18042;SDS011;9146;48.074;11.968;2022-08-04T01:26:01;2.80;;;2.60;;
18042;SDS011;9146;48.074;11.968;2022-08-04T01:28:55;2.60;;;2.40;;
18042;SDS011;9146;48.074;11.968;2022-08-04T01:31:56;2.83;;;2.63;;
18042;SDS011;9146;48.074;11.968;2022-08-04T01:34:27;2.80;;;2.60;;
18042;SDS011;9146;48.074;11.968;2022-08-04T01:36:58;2.60;;;2.40;;
18042;SDS011;9146;48.074;11.968;2022-08-04T01:39:32;3.00;;;2.80;;
18042;SDS011;9146;48.074;11.968;2022-08-04T01:42:08;2.40;;;2.23;;
18042;SDS011;9146;48.074;11.968;2022-08-04T01:44:37;2.60;;;2.50;;
18042;SDS011;9146;48.074;11.968;2022-08-04T01:47:07;2.93;;;2.63;;
18042;SDS011;9146;48.074;11.968;2022-08-04T01:49:36;3.00;;;2.80;;
18042;SDS011;9146;48.074;11.968;2022-08-04T01:52:04;2.87;;;2.70;;
18042;SDS011;9146;48.074;11.968;2022-08-04T01:54:36;3.10;;;2.80;;
18042;SDS011;9146;48.074;11.968;2022-08-04T01:57:06;3.20;;;3.00;;
18042;SDS011;9146;48.074;11.968;2022-08-04T01:59:35;3.70;;;3.20;;
18042;SDS011;9146;48.074;11.968;2022-08-04T02:02:04;3.43;;;3.13;;
18042;SDS011;9146;48.074;11.968;2022-08-04T02:04:34;2.87;;;2.67;;
18042;SDS011;9146;48.074;11.968;2022-08-04T02:07:06;3.47;;;3.17;;
18042;SDS011;9146;48.074;11.968;2022-08-04T02:09:46;3.30;;;3.10;;
18042;SDS011;9146;48.074;11.968;2022-08-04T02:12:24;3.20;;;2.90;;
18042;SDS011;9146;48.074;11.968;2022-08-04T02:15:02;3.40;;;3.10;;
18042;SDS011;9146;48.074;11.968;2022-08-04T02:17:35;4.40;;;3.20;;
18042;SDS011;9146;48.074;11.968;2022-08-04T02:20:14;3.13;;;2.93;;
18042;SDS011;9146;48.074;11.968;2022-08-04T02:22:46;3.90;;;3.60;;
18042;SDS011;9146;48.074;11.968;2022-08-04T02:25:21;3.10;;;2.90;;
18042;SDS011;9146;48.074;11.968;2022-08-04T02:27:54;3.67;;;3.37;;
18042;SDS011;9146;48.074;11.968;2022-08-04T02:30:37;4.37;;;3.67;;
18042;SDS011;9146;48.074;11.968;2022-08-04T02:33:09;3.43;;;3.13;;
18042;SDS011;9146;48.074;11.968;2022-08-04T02:35:43;3.60;;;3.07;;
18042;SDS011;9146;48.074;11.968;2022-08-04T02:38:18;3.43;;;3.13;;
18042;SDS011;9146;48.074;11.968;2022-08-04T02:40:56;3.77;;;3.47;;
18042;SDS011;9146;48.074;11.968;2022-08-04T02:43:27;3.47;;;3.17;;
18042;SDS011;9146;48.074;11.968;2022-08-04T02:45:55;2.87;;;2.67;;
18042;SDS011;9146;48.074;11.968;2022-08-04T02:48:23;2.77;;;2.57;;
18042;SDS011;9146;48.074;11.968;2022-08-04T02:50:53;3.10;;;2.80;;
18042;SDS011;9146;48.074;11.968;2022-08-04T02:53:23;4.63;;;3.63;;
18042;SDS011;9146;48.074;11.968;2022-08-04T02:55:52;3.60;;;3.30;;
18042;SDS011;9146;48.074;11.968;2022-08-04T02:58:21;4.83;;;3.73;;
18042;SDS011;9146;48.074;11.968;2022-08-04T03:00:49;3.33;;;3.10;;
18042;SDS011;9146;48.074;11.968;2022-08-04T03:03:20;4.27;;;3.87;;
18042;SDS011;9146;48.074;11.968;2022-08-04T03:05:57;5.80;;;4.07;;
18042;SDS011;9146;48.074;11.968;2022-08-04T03:14:55;3.40;;;3.10;;
18042;SDS011;9146;48.074;11.968;2022-08-04T03:23:44;3.77;;;3.47;;
18042;SDS011;9146;48.074;11.968;2022-08-04T03:26:45;3.17;;;2.97;;
18042;SDS011;9146;48.074;11.968;2022-08-04T03:29:42;3.67;;;3.37;;
18042;SDS011;9146;48.074;11.968;2022-08-04T03:36:17;3.53;;;3.23;;
18042;SDS011;9146;48.074;11.968;2022-08-04T03:39:30;3.67;;;3.30;;
18042;SDS011;9146;48.074;11.968;2022-08-04T03:42:38;3.27;;;3.07;;
18042;SDS011;9146;48.074;11.968;2022-08-04T03:45:31;3.87;;;3.57;;
18042;SDS011;9146;48.074;11.968;2022-08-04T03:48:28;3.50;;;3.20;;
18042;SDS011;9146;48.074;11.968;2022-08-04T03:51:25;3.23;;;3.03;;
18042;SDS011;9146;48.074;11.968;2022-08-04T03:57:27;3.07;;;2.73;;
18042;SDS011;9146;48.074;11.968;2022-08-04T04:00:07;3.20;;;2.90;;
18042;SDS011;9146;48.074;11.968;2022-08-04T04:08:59;3.20;;;2.97;;
18042;SDS011;9146;48.074;11.968;2022-08-04T04:11:54;3.43;;;3.13;;
18042;SDS011;9146;48.074;11.968;2022-08-04T04:14:45;3.40;;;3.10;;
18042;SDS011;9146;48.074;11.968;2022-08-04T04:23:27;3.37;;;3.17;;
18042;SDS011;9146;48.074;11.968;2022-08-04T04:26:02;3.00;;;2.80;;
18042;SDS011;9146;48.074;11.968;2022-08-04T04:31:47;3.17;;;2.97;;
18042;SDS011;9146;48.074;11.968;2022-08-04T04:34:37;3.20;;;3.00;;
18042;SDS011;9146;48.074;11.968;2022-08-04T04:37:13;4.93;;;3.40;;
18042;SDS011;9146;48.074;11.968;2022-08-04T04:39:53;3.83;;;3.53;;
18042;SDS011;9146;48.074;11.968;2022-08-04T04:42:48;5.83;;;4.20;;
18042;SDS011;9146;48.074;11.968;2022-08-04T04:45:33;6.60;;;3.53;;
18042;SDS011;9146;48.074;11.968;2022-08-04T04:48:06;5.40;;;3.90;;
18042;SDS011;9146;48.074;11.968;2022-08-04T04:50:46;4.20;;;3.73;;
18042;SDS011;9146;48.074;11.968;2022-08-04T04:53:23;4.30;;;3.67;;
18042;SDS011;9146;48.074;11.968;2022-08-04T04:55:55;3.60;;;3.30;;
18042;SDS011;9146;48.074;11.968;2022-08-04T04:58:29;3.70;;;3.13;;
18042;SDS011;9146;48.074;11.968;2022-08-04T05:07:04;3.80;;;3.30;;
18042;SDS011;9146;48.074;11.968;2022-08-04T05:09:48;3.47;;;3.17;;
18042;SDS011;9146;48.074;11.968;2022-08-04T05:12:46;4.33;;;3.10;;
18042;SDS011;9146;48.074;11.968;2022-08-04T05:15:25;4.30;;;3.03;;
18042;SDS011;9146;48.074;11.968;2022-08-04T05:17:56;3.33;;;3.13;;
18042;SDS011;9146;48.074;11.968;2022-08-04T05:20:26;4.00;;;3.70;;
18042;SDS011;9146;48.074;11.968;2022-08-04T05:23:00;4.23;;;3.80;;
18042;SDS011;9146;48.074;11.968;2022-08-04T05:25:30;5.57;;;3.67;;
18042;SDS011;9146;48.074;11.968;2022-08-04T05:28:02;4.33;;;3.37;;
18042;SDS011;9146;48.074;11.968;2022-08-04T05:30:31;5.40;;;3.40;;
18042;SDS011;9146;48.074;11.968;2022-08-04T05:33:03;3.63;;;3.33;;
18042;SDS011;9146;48.074;11.968;2022-08-04T05:35:32;5.43;;;3.60;;
18042;SDS011;9146;48.074;11.968;2022-08-04T05:38:00;3.50;;;3.20;;
18042;SDS011;9146;48.074;11.968;2022-08-04T05:40:28;5.57;;;3.40;;
18042;SDS011;9146;48.074;11.968;2022-08-04T05:42:56;3.30;;;3.10;;
18042;SDS011;9146;48.074;11.968;2022-08-04T05:45:23;5.77;;;3.37;;
18042;SDS011;9146;48.074;11.968;2022-08-04T05:47:52;4.00;;;3.20;;
18042;SDS011;9146;48.074;11.968;2022-08-04T05:50:22;3.93;;;3.63;;
18042;SDS011;9146;48.074;11.968;2022-08-04T05:52:50;5.10;;;3.40;;
18042;SDS011;9146;48.074;11.968;2022-08-04T05:55:18;5.60;;;3.30;;
18042;SDS011;9146;48.074;11.968;2022-08-04T05:57:47;5.23;;;3.87;;
18042;SDS011;9146;48.074;11.968;2022-08-04T06:00:15;5.40;;;4.10;;
18042;SDS011;9146;48.074;11.968;2022-08-04T06:02:43;5.27;;;4.43;;
18042;SDS011;9146;48.074;11.968;2022-08-04T06:05:11;4.47;;;3.80;;
18042;SDS011;9146;48.074;11.968;2022-08-04T06:07:40;5.10;;;4.43;;
18042;SDS011;9146;48.074;11.968;2022-08-04T06:10:08;5.90;;;5.10;;
18042;SDS011;9146;48.074;11.968;2022-08-04T06:12:38;3.80;;;3.40;;
18042;SDS011;9146;48.074;11.968;2022-08-04T06:15:07;4.50;;;4.10;;
18042;SDS011;9146;48.074;11.968;2022-08-04T06:17:37;3.67;;;3.33;;
18042;SDS011;9146;48.074;11.968;2022-08-04T06:20:05;4.73;;;3.43;;
18042;SDS011;9146;48.074;11.968;2022-08-04T06:22:33;3.30;;;3.10;;
18042;SDS011;9146;48.074;11.968;2022-08-04T06:25:03;3.30;;;3.00;;
18042;SDS011;9146;48.074;11.968;2022-08-04T06:27:31;4.23;;;3.83;;
18042;SDS011;9146;48.074;11.968;2022-08-04T06:29:59;4.17;;;3.77;;
18042;SDS011;9146;48.074;11.968;2022-08-04T06:32:27;3.40;;;3.10;;
18042;SDS011;9146;48.074;11.968;2022-08-04T06:35:02;3.47;;;3.17;;
18042;SDS011;9146;48.074;11.968;2022-08-04T06:37:29;7.80;;;3.67;;
18042;SDS011;9146;48.074;11.968;2022-08-04T06:39:57;10.27;;;4.57;;
18042;SDS011;9146;48.074;11.968;2022-08-04T06:42:27;3.60;;;3.30;;
18042;SDS011;9146;48.074;11.968;2022-08-04T06:44:56;3.97;;;3.53;;
18042;SDS011;9146;48.074;11.968;2022-08-04T06:47:24;3.93;;;3.47;;
18042;SDS011;9146;48.074;11.968;2022-08-04T06:49:52;4.20;;;3.90;;
18042;SDS011;9146;48.074;11.968;2022-08-04T06:52:19;4.97;;;4.20;;
18042;SDS011;9146;48.074;11.968;2022-08-04T06:54:47;4.80;;;2.97;;
18042;SDS011;9146;48.074;11.968;2022-08-04T06:57:17;3.90;;;3.50;;
18042;SDS011;9146;48.074;11.968;2022-08-04T06:59:48;3.70;;;3.33;;
18042;SDS011;9146;48.074;11.968;2022-08-04T07:02:19;3.80;;;3.50;;
18042;SDS011;9146;48.074;11.968;2022-08-04T07:04:50;3.37;;;3.07;;
18042;SDS011;9146;48.074;11.968;2022-08-04T07:07:17;3.73;;;3.43;;
18042;SDS011;9146;48.074;11.968;2022-08-04T07:09:45;4.37;;;3.50;;
18042;SDS011;9146;48.074;11.968;2022-08-04T07:12:12;3.90;;;3.37;;
18042;SDS011;9146;48.074;11.968;2022-08-04T07:14:40;5.10;;;3.27;;
18042;SDS011;9146;48.074;11.968;2022-08-04T07:17:09;3.47;;;3.17;;
18042;SDS011;9146;48.074;11.968;2022-08-04T07:19:37;2.87;;;2.67;;
18042;SDS011;9146;48.074;11.968;2022-08-04T07:22:04;3.60;;;3.20;;
18042;SDS011;9146;48.074;11.968;2022-08-04T07:24:34;4.43;;;3.47;;
18042;SDS011;9146;48.074;11.968;2022-08-04T07:27:03;3.37;;;3.10;;
18042;SDS011;9146;48.074;11.968;2022-08-04T07:29:31;3.23;;;2.93;;
18042;SDS011;9146;48.074;11.968;2022-08-04T07:32:00;3.30;;;3.10;;
18042;SDS011;9146;48.074;11.968;2022-08-04T07:34:30;4.10;;;3.37;;
18042;SDS011;9146;48.074;11.968;2022-08-04T07:36:58;3.53;;;3.33;;
18042;SDS011;9146;48.074;11.968;2022-08-04T07:39:26;6.73;;;3.50;;
18042;SDS011;9146;48.074;11.968;2022-08-04T07:41:56;3.60;;;3.30;;
18042;SDS011;9146;48.074;11.968;2022-08-04T07:44:24;5.03;;;3.90;;
18042;SDS011;9146;48.074;11.968;2022-08-04T07:46:52;6.60;;;3.70;;
18042;SDS011;9146;48.074;11.968;2022-08-04T07:49:19;3.90;;;3.57;;
18042;SDS011;9146;48.074;11.968;2022-08-04T07:51:48;3.73;;;3.30;;
18042;SDS011;9146;48.074;11.968;2022-08-04T07:54:16;3.43;;;3.23;;
18042;SDS011;9146;48.074;11.968;2022-08-04T07:56:44;3.03;;;2.83;;
18042;SDS011;9146;48.074;11.968;2022-08-04T07:59:13;3.30;;;3.10;;
18042;SDS011;9146;48.074;11.968;2022-08-04T08:01:41;3.10;;;2.90;;
18042;SDS011;9146;48.074;11.968;2022-08-04T08:04:09;3.50;;;3.20;;
18042;SDS011;9146;48.074;11.968;2022-08-04T08:06:37;3.00;;;2.80;;
18042;SDS011;9146;48.074;11.968;2022-08-04T08:09:07;4.00;;;3.67;;
18042;SDS011;9146;48.074;11.968;2022-08-04T08:11:35;3.73;;;3.43;;
18042;SDS011;9146;48.074;11.968;2022-08-04T08:14:03;3.47;;;3.17;;
18042;SDS011;9146;48.074;11.968;2022-08-04T08:16:32;4.40;;;4.00;;
18042;SDS011;9146;48.074;11.968;2022-08-04T08:19:00;3.10;;;2.90;;
18042;SDS011;9146;48.074;11.968;2022-08-04T08:21:27;3.70;;;3.40;;
18042;SDS011;9146;48.074;11.968;2022-08-04T08:23:54;3.90;;;3.30;;
18042;SDS011;9146;48.074;11.968;2022-08-04T08:26:23;3.77;;;3.17;;
18042;SDS011;9146;48.074;11.968;2022-08-04T08:28:51;3.30;;;3.10;;
18042;SDS011;9146;48.074;11.968;2022-08-04T08:31:18;5.33;;;3.40;;
18042;SDS011;9146;48.074;11.968;2022-08-04T08:33:46;3.50;;;3.20;;
18042;SDS011;9146;48.074;11.968;2022-08-04T08:36:16;3.73;;;3.43;;
18042;SDS011;9146;48.074;11.968;2022-08-04T08:38:52;3.73;;;3.43;;
18042;SDS011;9146;48.074;11.968;2022-08-04T08:47:39;3.63;;;3.23;;
18042;SDS011;9146;48.074;11.968;2022-08-04T08:50:17;3.47;;;3.17;;
18042;SDS011;9146;48.074;11.968;2022-08-04T08:53:01;4.17;;;3.43;;
18042;SDS011;9146;48.074;11.968;2022-08-04T08:55:41;3.30;;;2.90;;
18042;SDS011;9146;48.074;11.968;2022-08-04T08:58:34;4.03;;;3.67;;
18042;SDS011;9146;48.074;11.968;2022-08-04T09:01:13;5.30;;;3.60;;
18042;SDS011;9146;48.074;11.968;2022-08-04T09:07:05;3.63;;;3.23;;
18042;SDS011;9146;48.074;11.968;2022-08-04T09:09:48;4.60;;;3.10;;
18042;SDS011;9146;48.074;11.968;2022-08-04T09:12:27;3.70;;;3.40;;
18042;SDS011;9146;48.074;11.968;2022-08-04T09:15:02;3.47;;;3.17;;
18042;SDS011;9146;48.074;11.968;2022-08-04T09:17:34;2.70;;;2.50;;
18042;SDS011;9146;48.074;11.968;2022-08-04T09:20:09;4.77;;;3.60;;
18042;SDS011;9146;48.074;11.968;2022-08-04T09:22:44;3.37;;;3.00;;
18042;SDS011;9146;48.074;11.968;2022-08-04T09:25:18;3.77;;;3.47;;
18042;SDS011;9146;48.074;11.968;2022-08-04T09:27:50;4.33;;;3.87;;
18042;SDS011;9146;48.074;11.968;2022-08-04T09:30:20;3.17;;;2.93;;
18042;SDS011;9146;48.074;11.968;2022-08-04T09:32:56;3.67;;;3.37;;
18042;SDS011;9146;48.074;11.968;2022-08-04T09:35:32;3.10;;;2.80;;
18042;SDS011;9146;48.074;11.968;2022-08-04T09:38:14;5.27;;;3.40;;
18042;SDS011;9146;48.074;11.968;2022-08-04T09:40:47;3.43;;;3.23;;
18042;SDS011;9146;48.074;11.968;2022-08-04T09:43:19;4.13;;;3.70;;
18042;SDS011;9146;48.074;11.968;2022-08-04T09:46:00;6.10;;;4.83;;
18042;SDS011;9146;48.074;11.968;2022-08-04T09:48:34;5.00;;;3.43;;
18042;SDS011;9146;48.074;11.968;2022-08-04T09:51:10;3.03;;;2.83;;
18042;SDS011;9146;48.074;11.968;2022-08-04T09:53:51;3.73;;;3.30;;
18042;SDS011;9146;48.074;11.968;2022-08-04T09:56:25;3.90;;;3.60;;
18042;SDS011;9146;48.074;11.968;2022-08-04T09:59:00;5.33;;;3.10;;
18042;SDS011;9146;48.074;11.968;2022-08-04T10:01:36;3.50;;;3.20;;
18042;SDS011;9146;48.074;11.968;2022-08-04T10:04:07;3.50;;;3.20;;
18042;SDS011;9146;48.074;11.968;2022-08-04T10:09:46;3.13;;;2.90;;
18042;SDS011;9146;48.074;11.968;2022-08-04T10:12:36;5.50;;;3.47;;
18042;SDS011;9146;48.074;11.968;2022-08-04T10:15:09;3.67;;;3.33;;
18042;SDS011;9146;48.074;11.968;2022-08-04T10:20:50;2.93;;;2.70;;
18042;SDS011;9146;48.074;11.968;2022-08-04T10:23:35;3.63;;;3.33;;
18042;SDS011;9146;48.074;11.968;2022-08-04T10:26:15;3.20;;;3.00;;
18042;SDS011;9146;48.074;11.968;2022-08-04T10:28:54;2.80;;;2.60;;
18042;SDS011;9146;48.074;11.968;2022-08-04T10:31:25;3.70;;;3.40;;
18042;SDS011;9146;48.074;11.968;2022-08-04T10:33:57;3.70;;;2.80;;
18042;SDS011;9146;48.074;11.968;2022-08-04T10:36:31;2.93;;;2.67;;
18042;SDS011;9146;48.074;11.968;2022-08-04T10:39:07;3.30;;;3.10;;
18042;SDS011;9146;48.074;11.968;2022-08-04T10:41:41;2.30;;;2.20;;
18042;SDS011;9146;48.074;11.968;2022-08-04T10:44:19;5.20;;;2.77;;
18042;SDS011;9146;48.074;11.968;2022-08-04T10:46:57;2.47;;;2.37;;
18042;SDS011;9146;48.074;11.968;2022-08-04T10:49:31;2.57;;;2.37;;
18042;SDS011;9146;48.074;11.968;2022-08-04T10:52:04;2.67;;;2.47;;
18042;SDS011;9146;48.074;11.968;2022-08-04T10:54:38;2.63;;;2.20;;
18042;SDS011;9146;48.074;11.968;2022-08-04T10:57:15;2.40;;;2.30;;
18042;SDS011;9146;48.074;11.968;2022-08-04T10:59:50;2.53;;;2.33;;
18042;SDS011;9146;48.074;11.968;2022-08-04T11:02:25;2.80;;;2.60;;
18042;SDS011;9146;48.074;11.968;2022-08-04T11:04:58;2.80;;;2.53;;
18042;SDS011;9146;48.074;11.968;2022-08-04T11:07:32;2.40;;;2.30;;
18042;SDS011;9146;48.074;11.968;2022-08-04T11:10:03;3.83;;;2.53;;
18042;SDS011;9146;48.074;11.968;2022-08-04T11:12:32;2.10;;;2.00;;
18042;SDS011;9146;48.074;11.968;2022-08-04T11:15:03;2.70;;;2.50;;
18042;SDS011;9146;48.074;11.968;2022-08-04T11:17:35;2.63;;;2.53;;
18042;SDS011;9146;48.074;11.968;2022-08-04T11:20:10;2.37;;;2.27;;
18042;SDS011;9146;48.074;11.968;2022-08-04T11:22:43;2.70;;;2.50;;
18042;SDS011;9146;48.074;11.968;2022-08-04T11:25:16;2.60;;;2.40;;
18042;SDS011;9146;48.074;11.968;2022-08-04T11:27:50;2.80;;;2.63;;
18042;SDS011;9146;48.074;11.968;2022-08-04T11:30:27;6.40;;;2.73;;
18042;SDS011;9146;48.074;11.968;2022-08-04T11:33:01;3.33;;;3.10;;
18042;SDS011;9146;48.074;11.968;2022-08-04T11:35:41;2.33;;;2.23;;
18042;SDS011;9146;48.074;11.968;2022-08-04T11:38:19;2.80;;;2.60;;
18042;SDS011;9146;48.074;11.968;2022-08-04T11:40:51;2.10;;;2.00;;
18042;SDS011;9146;48.074;11.968;2022-08-04T11:43:25;2.17;;;2.07;;
18042;SDS011;9146;48.074;11.968;2022-08-04T11:46:00;3.10;;;2.90;;
18042;SDS011;9146;48.074;11.968;2022-08-04T11:48:34;2.50;;;2.30;;
18042;SDS011;9146;48.074;11.968;2022-08-04T11:51:06;2.47;;;2.37;;
18042;SDS011;9146;48.074;11.968;2022-08-04T11:53:36;2.67;;;2.43;;
18042;SDS011;9146;48.074;11.968;2022-08-04T11:56:12;2.40;;;2.30;;
18042;SDS011;9146;48.074;11.968;2022-08-04T11:58:41;2.53;;;2.33;;
18042;SDS011;9146;48.074;11.968;2022-08-04T12:01:10;5.07;;;2.80;;
18042;SDS011;9146;48.074;11.968;2022-08-04T12:03:49;2.70;;;2.50;;
18042;SDS011;9146;48.074;11.968;2022-08-04T12:06:29;2.80;;;2.60;;
18042;SDS011;9146;48.074;11.968;2022-08-04T12:09:08;2.20;;;2.10;;
18042;SDS011;9146;48.074;11.968;2022-08-04T12:11:48;3.20;;;2.60;;
18042;SDS011;9146;48.074;11.968;2022-08-04T12:14:24;2.30;;;2.20;;
18042;SDS011;9146;48.074;11.968;2022-08-04T12:16:57;2.43;;;2.23;;
18042;SDS011;9146;48.074;11.968;2022-08-04T12:19:28;2.23;;;2.13;;
18042;SDS011;9146;48.074;11.968;2022-08-04T12:22:00;2.60;;;2.50;;
18042;SDS011;9146;48.074;11.968;2022-08-04T12:24:33;2.43;;;2.23;;
18042;SDS011;9146;48.074;11.968;2022-08-04T12:27:06;2.20;;;2.10;;
18042;SDS011;9146;48.074;11.968;2022-08-04T12:29:38;2.60;;;2.40;;
18042;SDS011;9146;48.074;11.968;2022-08-04T12:32:10;2.87;;;2.67;;
18042;SDS011;9146;48.074;11.968;2022-08-04T12:34:47;2.37;;;2.27;;
18042;SDS011;9146;48.074;11.968;2022-08-04T12:37:22;2.30;;;2.20;;
18042;SDS011;9146;48.074;11.968;2022-08-04T12:39:59;2.20;;;2.10;;
18042;SDS011;9146;48.074;11.968;2022-08-04T12:42:32;2.23;;;2.03;;
18042;SDS011;9146;48.074;11.968;2022-08-04T12:45:07;2.17;;;2.03;;
18042;SDS011;9146;48.074;11.968;2022-08-04T12:47:36;2.57;;;2.37;;
18042;SDS011;9146;48.074;11.968;2022-08-04T12:50:04;2.70;;;2.40;;
18042;SDS011;9146;48.074;11.968;2022-08-04T12:52:39;2.30;;;2.20;;
18042;SDS011;9146;48.074;11.968;2022-08-04T12:55:09;2.30;;;2.13;;
18042;SDS011;9146;48.074;11.968;2022-08-04T12:57:38;2.30;;;2.10;;
18042;SDS011;9146;48.074;11.968;2022-08-04T13:00:07;2.70;;;1.83;;
18042;SDS011;9146;48.074;11.968;2022-08-04T13:02:38;2.00;;;1.90;;
18042;SDS011;9146;48.074;11.968;2022-08-04T13:05:08;2.40;;;2.30;;
18042;SDS011;9146;48.074;11.968;2022-08-04T13:07:44;1.80;;;1.70;;
18042;SDS011;9146;48.074;11.968;2022-08-04T13:10:18;2.43;;;2.23;;
18042;SDS011;9146;48.074;11.968;2022-08-04T13:12:50;2.70;;;2.07;;
18042;SDS011;9146;48.074;11.968;2022-08-04T13:15:21;2.00;;;1.90;;
18042;SDS011;9146;48.074;11.968;2022-08-04T13:17:50;2.13;;;2.03;;
18042;SDS011;9146;48.074;11.968;2022-08-04T13:20:25;1.93;;;1.83;;
18042;SDS011;9146;48.074;11.968;2022-08-04T13:22:58;2.17;;;2.00;;
18042;SDS011;9146;48.074;11.968;2022-08-04T13:25:30;1.93;;;1.83;;
18042;SDS011;9146;48.074;11.968;2022-08-04T13:27:59;1.80;;;1.70;;
18042;SDS011;9146;48.074;11.968;2022-08-04T13:30:27;2.30;;;2.10;;
18042;SDS011;9146;48.074;11.968;2022-08-04T13:32:58;2.03;;;1.93;;
18042;SDS011;9146;48.074;11.968;2022-08-04T13:35:28;1.90;;;1.80;;
18042;SDS011;9146;48.074;11.968;2022-08-04T13:37:57;2.23;;;2.13;;
18042;SDS011;9146;48.074;11.968;2022-08-04T13:40:25;1.93;;;1.80;;
18042;SDS011;9146;48.074;11.968;2022-08-04T13:42:55;3.03;;;2.30;;
18042;SDS011;9146;48.074;11.968;2022-08-04T13:45:23;2.43;;;2.23;;
18042;SDS011;9146;48.074;11.968;2022-08-04T13:47:56;4.97;;;2.30;;
18042;SDS011;9146;48.074;11.968;2022-08-04T13:50:27;2.20;;;2.10;;
18042;SDS011;9146;48.074;11.968;2022-08-04T13:52:56;2.00;;;1.90;;
18042;SDS011;9146;48.074;11.968;2022-08-04T13:55:27;2.10;;;2.00;;
18042;SDS011;9146;48.074;11.968;2022-08-04T14:00:44;1.40;;;1.30;;
18042;SDS011;9146;48.074;11.968;2022-08-04T14:03:24;2.80;;;2.17;;
18042;SDS011;9146;48.074;11.968;2022-08-04T14:06:09;2.60;;;2.40;;
18042;SDS011;9146;48.074;11.968;2022-08-04T14:08:52;2.90;;;2.07;;
18042;SDS011;9146;48.074;11.968;2022-08-04T14:11:22;2.57;;;2.37;;
18042;SDS011;9146;48.074;11.968;2022-08-04T14:14:03;2.57;;;2.37;;
18042;SDS011;9146;48.074;11.968;2022-08-04T14:16:53;2.40;;;2.30;;
18042;SDS011;9146;48.074;11.968;2022-08-04T14:19:25;3.17;;;2.20;;
18042;SDS011;9146;48.074;11.968;2022-08-04T14:21:53;2.30;;;2.20;;
18042;SDS011;9146;48.074;11.968;2022-08-04T14:24:23;2.30;;;2.10;;
18042;SDS011;9146;48.074;11.968;2022-08-04T14:26:52;2.33;;;2.13;;
18042;SDS011;9146;48.074;11.968;2022-08-04T14:29:25;4.63;;;2.33;;
18042;SDS011;9146;48.074;11.968;2022-08-04T14:32:03;4.67;;;2.63;;
18042;SDS011;9146;48.074;11.968;2022-08-04T14:34:36;2.67;;;2.47;;
18042;SDS011;9146;48.074;11.968;2022-08-04T14:37:08;2.23;;;2.10;;
18042;SDS011;9146;48.074;11.968;2022-08-04T14:39:39;2.30;;;2.20;;
18042;SDS011;9146;48.074;11.968;2022-08-04T14:42:07;2.67;;;2.47;;
18042;SDS011;9146;48.074;11.968;2022-08-04T14:44:52;2.57;;;2.47;;
18042;SDS011;9146;48.074;11.968;2022-08-04T14:47:39;2.00;;;1.90;;
18042;SDS011;9146;48.074;11.968;2022-08-04T14:50:08;2.33;;;2.17;;
18042;SDS011;9146;48.074;11.968;2022-08-04T14:52:36;3.60;;;2.60;;
18042;SDS011;9146;48.074;11.968;2022-08-04T14:55:17;2.60;;;2.40;;
18042;SDS011;9146;48.074;11.968;2022-08-04T14:57:45;2.50;;;2.33;;
18042;SDS011;9146;48.074;11.968;2022-08-04T15:00:14;2.50;;;2.30;;
18042;SDS011;9146;48.074;11.968;2022-08-04T15:02:51;2.90;;;2.47;;
18042;SDS011;9146;48.074;11.968;2022-08-04T15:05:19;2.47;;;2.33;;
18042;SDS011;9146;48.074;11.968;2022-08-04T15:07:47;3.00;;;2.17;;
18042;SDS011;9146;48.074;11.968;2022-08-04T15:10:15;2.50;;;2.30;;
18042;SDS011;9146;48.074;11.968;2022-08-04T15:12:42;2.70;;;2.50;;
18042;SDS011;9146;48.074;11.968;2022-08-04T15:15:10;2.03;;;1.93;;
18042;SDS011;9146;48.074;11.968;2022-08-04T15:17:39;4.07;;;2.93;;
18042;SDS011;9146;48.074;11.968;2022-08-04T15:20:09;1.83;;;1.73;;
18042;SDS011;9146;48.074;11.968;2022-08-04T15:22:37;2.40;;;2.30;;
18042;SDS011;9146;48.074;11.968;2022-08-04T15:25:05;2.07;;;1.97;;
18042;SDS011;9146;48.074;11.968;2022-08-04T15:27:33;2.20;;;2.10;;
18042;SDS011;9146;48.074;11.968;2022-08-04T15:30:03;2.00;;;1.90;;
18042;SDS011;9146;48.074;11.968;2022-08-04T15:32:33;2.97;;;2.77;;
18042;SDS011;9146;48.074;11.968;2022-08-04T15:35:04;2.43;;;2.33;;
18042;SDS011;9146;48.074;11.968;2022-08-04T15:37:43;3.07;;;2.03;;
18042;SDS011;9146;48.074;11.968;2022-08-04T15:40:18;2.83;;;1.90;;
18042;SDS011;9146;48.074;11.968;2022-08-04T15:43:00;2.30;;;2.10;;
18042;SDS011;9146;48.074;11.968;2022-08-04T15:45:45;3.90;;;2.63;;
18042;SDS011;9146;48.074;11.968;2022-08-04T15:51:05;2.20;;;2.10;;
18042;SDS011;9146;48.074;11.968;2022-08-04T15:56:47;2.40;;;2.30;;
18042;SDS011;9146;48.074;11.968;2022-08-04T15:59:15;2.20;;;2.10;;
18042;SDS011;9146;48.074;11.968;2022-08-04T16:04:58;2.13;;;2.03;;
18042;SDS011;9146;48.074;11.968;2022-08-04T16:08:07;2.17;;;2.03;;
18042;SDS011;9146;48.074;11.968;2022-08-04T16:10:39;2.20;;;2.10;;
18042;SDS011;9146;48.074;11.968;2022-08-04T16:13:08;2.60;;;2.40;;
18042;SDS011;9146;48.074;11.968;2022-08-04T16:15:39;7.70;;;2.33;;
18042;SDS011;9146;48.074;11.968;2022-08-04T16:18:08;2.37;;;2.20;;
18042;SDS011;9146;48.074;11.968;2022-08-04T16:20:38;2.10;;;2.00;;
18042;SDS011;9146;48.074;11.968;2022-08-04T16:23:19;5.40;;;2.37;;
18042;SDS011;9146;48.074;11.968;2022-08-04T16:26:12;2.30;;;2.20;;
18042;SDS011;9146;48.074;11.968;2022-08-04T16:28:40;3.70;;;2.50;;
18042;SDS011;9146;48.074;11.968;2022-08-04T16:31:08;2.30;;;2.10;;
18042;SDS011;9146;48.074;11.968;2022-08-04T16:33:37;5.17;;;1.90;;
18042;SDS011;9146;48.074;11.968;2022-08-04T16:36:05;2.53;;;2.00;;
18042;SDS011;9146;48.074;11.968;2022-08-04T16:41:43;2.77;;;1.90;;
18042;SDS011;9146;48.074;11.968;2022-08-04T16:44:29;2.03;;;1.60;;
18042;SDS011;9146;48.074;11.968;2022-08-04T16:46:58;1.80;;;1.70;;